»·PEaware :: N956RL KBUR-KLAS

N956RL :: KBUR-KLAS

FLIGHT INFORMATION

Flight Status: Arrived
Operator: Privately registered:
United States
More flights under this callsign
Pilot: Paul H. (26851)
Aircraft: CESSNA 182 SKYLANE
(C182)
More flights by this aircraft type
Origin: KBUR Bob Hope-Burbank
United States
Destination: KLAS McCarran Intl
United States
More flights between these airports :: More routes between these airports
Route: VNY3 DAG CRESO4
File this flight plan on PilotEdge
Remarks:
Altitude:
(Current/Filed)
11,000ft
Speed:
(Current/Filed)
150kts
Departed: 21-May-20 12:46 PM
Arrived: 21-May-20 02:15 PM
Distance/Time
Traveled:
193nm/1:29
Distance/Time
To Go:
Arrived

Flight Plot

Page will automatically refresh every two minutes.


Map Options




Map Legend


Flown Route
Filed Route
Departure Airport
Arrival Airport
Navaid (VOR, NDB)
Fix

Horizontal Profiles

Position Reports

Time Latitude Longitude Heading Altitude Ground
Speed
21-May-20 12:30 34.196810 -118.351970 179 696ft 0kts
21-May-20 12:31 34.196810 -118.351970 179 696ft 0kts
21-May-20 12:32 34.196810 -118.351970 179 696ft 0kts
21-May-20 12:33 34.196810 -118.351970 179 696ft 0kts
21-May-20 12:34 34.196810 -118.351970 179 696ft 0kts
21-May-20 12:35 34.196810 -118.351970 179 696ft 0kts
21-May-20 12:36 34.196810 -118.351970 179 696ft 0kts
21-May-20 12:37 34.196810 -118.351970 179 696ft 0kts
21-May-20 12:38 34.196982 -118.354628 272 702ft 22kts
21-May-20 12:39 34.202904 -118.356524 344 723ft 22kts
21-May-20 12:40 34.208488 -118.358073 347 751ft 17kts
21-May-20 12:41 34.211358 -118.358733 313 761ft 4kts
21-May-20 12:42 34.211599 -118.359086 309 762ft 0kts
21-May-20 12:43 34.211599 -118.359086 309 762ft 0kts
21-May-20 12:44 34.211878 -118.359837 258 765ft 16kts
21-May-20 12:45 34.194704 -118.356237 179 1457ft 95kts
21-May-20 12:46 34.172583 -118.378310 225 2789ft 112kts
21-May-20 12:47 34.161979 -118.408535 321 4152ft 111kts
21-May-20 12:48 34.187354 -118.416146 353 5868ft 89kts
21-May-20 12:49 34.212254 -118.421594 353 7281ft 93kts
21-May-20 12:50 34.237889 -118.427423 353 8661ft 98kts
21-May-20 12:51 34.264000 -118.433421 353 10095ft 95kts
21-May-20 12:52 34.292446 -118.439838 353 11034ft 134kts
21-May-20 12:53 34.334782 -118.449419 352 11036ft 164kts
21-May-20 12:54 34.380222 -118.456657 15 11044ft 163kts
21-May-20 12:55 34.410044 -118.418695 57 11068ft 159kts
21-May-20 12:56 34.436474 -118.375279 53 11078ft 159kts
21-May-20 12:57 34.463439 -118.332396 53 11089ft 159kts
21-May-20 12:58 34.490435 -118.289323 53 11095ft 160kts
21-May-20 12:59 34.517354 -118.246384 53 11101ft 160kts
21-May-20 13:00 34.544394 -118.203169 53 11098ft 160kts
21-May-20 13:01 34.571667 -118.159528 53 11028ft 161kts
21-May-20 13:02 34.598738 -118.116151 53 11027ft 160kts
21-May-20 13:03 34.625717 -118.072896 53 11022ft 160kts
21-May-20 13:04 34.636513 -118.021514 84 11027ft 160kts
21-May-20 13:05 34.641930 -117.967552 81 11010ft 160kts
21-May-20 13:06 34.647836 -117.913754 81 11009ft 160kts
21-May-20 13:07 34.653679 -117.860077 81 10997ft 160kts
21-May-20 13:08 34.659529 -117.806185 81 10993ft 159kts
21-May-20 13:09 34.665805 -117.752790 73 10999ft 158kts
21-May-20 13:10 34.679907 -117.702062 71 10995ft 158kts
21-May-20 13:11 34.693035 -117.651022 72 10990ft 157kts
21-May-20 13:12 34.706065 -117.600147 72 10998ft 156kts
21-May-20 13:13 34.719025 -117.549453 72 10996ft 156kts
21-May-20 13:14 34.731961 -117.498825 72 10990ft 156kts
21-May-20 13:15 34.744869 -117.448155 72 10990ft 156kts
21-May-20 13:16 34.757820 -117.397225 72 10985ft 157kts
21-May-20 13:17 34.770476 -117.347420 72 10991ft 157kts
21-May-20 13:18 34.783234 -117.297015 72 11037ft 157kts
21-May-20 13:19 34.796190 -117.245796 72 11022ft 158kts
21-May-20 13:20 34.809197 -117.194254 72 11021ft 158kts
21-May-20 13:21 34.822145 -117.142811 72 11025ft 159kts
21-May-20 13:22 34.835213 -117.090875 72 10997ft 161kts
21-May-20 13:23 34.848373 -117.038358 72 10992ft 162kts
21-May-20 13:24 34.861640 -116.985367 72 10977ft 163kts
21-May-20 13:25 34.874947 -116.932157 72 10977ft 164kts
21-May-20 13:26 34.888327 -116.878427 71 10970ft 165kts
21-May-20 13:27 34.901761 -116.824481 71 10970ft 166kts
21-May-20 13:28 34.915196 -116.770309 71 10964ft 166kts
21-May-20 13:29 34.928616 -116.716140 71 10963ft 166kts
21-May-20 13:30 34.942333 -116.661987 71 10957ft 167kts
21-May-20 13:31 34.955771 -116.607473 71 10956ft 167kts
21-May-20 13:32 34.972269 -116.554799 57 10948ft 166kts
21-May-20 13:33 34.995813 -116.505791 58 10942ft 167kts
21-May-20 13:34 35.018691 -116.456464 58 10951ft 166kts
21-May-20 13:35 35.041584 -116.407014 59 10945ft 167kts
21-May-20 13:36 35.061759 -116.355702 58 10945ft 167kts
21-May-20 13:37 35.084055 -116.307625 58 10992ft 166kts
21-May-20 13:38 35.106520 -116.258921 58 11018ft 166kts
21-May-20 13:39 35.129139 -116.209841 58 11022ft 167kts
21-May-20 13:40 35.152099 -116.159990 58 11020ft 167kts
21-May-20 13:41 35.174896 -116.110341 58 11014ft 167kts
21-May-20 13:42 35.197763 -116.060520 58 11012ft 167kts
21-May-20 13:43 35.220617 -116.010678 58 11007ft 167kts
21-May-20 13:44 35.243369 -115.960906 58 11006ft 167kts
21-May-20 13:45 35.266119 -115.911134 58 11001ft 167kts
21-May-20 13:46 35.288935 -115.861142 58 10982ft 167kts
21-May-20 13:47 35.311675 -115.811195 58 10965ft 167kts
21-May-20 13:48 35.331451 -115.759895 49 10949ft 166kts
21-May-20 13:49 35.362725 -115.718426 46 10937ft 165kts
21-May-20 13:50 35.394117 -115.677283 44 10923ft 165kts
21-May-20 13:51 35.425724 -115.636647 44 10919ft 164kts
21-May-20 13:52 35.457519 -115.595663 44 10760ft 172kts
21-May-20 13:53 35.492035 -115.551104 44 9925ft 177kts
21-May-20 13:54 35.521816 -115.506548 49 9908ft 164kts
21-May-20 13:55 35.552701 -115.465306 44 9907ft 163kts
21-May-20 13:56 35.584031 -115.424819 44 9904ft 163kts
21-May-20 13:57 35.615315 -115.384271 44 9900ft 163kts
21-May-20 13:58 35.645187 -115.343520 47 9790ft 169kts
21-May-20 13:59 35.678125 -115.297599 47 8841ft 182kts
21-May-20 14:00 35.711803 -115.251030 47 7867ft 182kts
21-May-20 14:02 35.745298 -115.204602 47 6956ft 176kts
21-May-20 14:03 35.779679 -115.168341 12 6918ft 160kts
21-May-20 14:04 35.824009 -115.164447 2 6906ft 159kts
21-May-20 14:05 35.871689 -115.161998 2 6004ft 180kts
21-May-20 14:06 35.917963 -115.159495 2 5905ft 155kts
21-May-20 14:07 35.960719 -115.157252 2 5908ft 152kts
21-May-20 14:08 36.003099 -115.155045 2 5905ft 152kts
21-May-20 14:09 36.044812 -115.152961 2 5633ft 134kts
21-May-20 14:10 36.075960 -115.141570 35 4844ft 109kts
21-May-20 14:11 36.100315 -115.119465 35 4007ft 123kts
21-May-20 14:12 36.128254 -115.102069 336 3303ft 105kts
21-May-20 14:13 36.126658 -115.130475 226 2798ft 97kts
21-May-20 14:14 36.106461 -115.152648 205 2353ft 98kts
21-May-20 14:15 36.090295 -115.161826 205 2119ft 24kts
21-May-20 14:16 36.089366 -115.163404 296 2127ft 0kts
21-May-20 14:16 36.089626 -115.164095 294 2130ft 11kts
21-May-20 14:18 36.089482 -115.165708 279 2135ft 0kts
21-May-20 14:19 36.089482 -115.165708 279 2135ft 0kts
21-May-20 14:19 36.089482 -115.165708 279 2135ft 0kts

Navigation Log

Ident Type
Flight plan parsing failed, navigation log unavailable